sensor_id;sensor_type;location;lat;lon;timestamp;pressure;altitude;pressure_sealevel;temperature;humidity
48404;BME280;34202;52.536;6.042;2023-04-23T00:00:22;100896.86;;;7.68;100.00
48404;BME280;34202;52.536;6.042;2023-04-23T00:05:23;100890.95;;;7.68;100.00
48404;BME280;34202;52.536;6.042;2023-04-23T00:10:26;100883.66;;;7.67;100.00
48404;BME280;34202;52.536;6.042;2023-04-23T00:15:27;100881.73;;;7.66;100.00
48404;BME280;34202;52.536;6.042;2023-04-23T00:20:27;100878.61;;;7.65;100.00
48404;BME280;34202;52.536;6.042;2023-04-23T00:25:27;100875.11;;;7.64;100.00
48404;BME280;34202;52.536;6.042;2023-04-23T00:30:27;100877.01;;;7.64;100.00
48404;BME280;34202;52.536;6.042;2023-04-23T00:35:28;100871.11;;;7.63;100.00
48404;BME280;34202;52.536;6.042;2023-04-23T00:40:28;100872.15;;;7.63;100.00
48404;BME280;34202;52.536;6.042;2023-04-23T00:45:28;100867.30;;;7.63;100.00
48404;BME280;34202;52.536;6.042;2023-04-23T00:50:29;100869.20;;;7.62;100.00
48404;BME280;34202;52.536;6.042;2023-04-23T00:55:29;100860.17;;;7.62;100.00
48404;BME280;34202;52.536;6.042;2023-04-23T01:00:29;100849.95;;;7.62;100.00
48404;BME280;34202;52.536;6.042;2023-04-23T01:05:29;100842.85;;;7.62;100.00
48404;BME280;34202;52.536;6.042;2023-04-23T01:10:30;100841.81;;;7.62;100.00
48404;BME280;34202;52.536;6.042;2023-04-23T01:15:31;100841.96;;;7.60;100.00
48404;BME280;34202;52.536;6.042;2023-04-23T01:20:32;100840.23;;;7.61;100.00
48404;BME280;34202;52.536;6.042;2023-04-23T01:25:33;100835.02;;;7.60;100.00
48404;BME280;34202;52.536;6.042;2023-04-23T01:30:34;100831.19;;;7.59;100.00
48404;BME280;34202;52.536;6.042;2023-04-23T01:35:34;100833.26;;;7.58;100.00
48404;BME280;34202;52.536;6.042;2023-04-23T01:40:35;100833.23;;;7.56;100.00
48404;BME280;34202;52.536;6.042;2023-04-23T01:45:36;100833.52;;;7.54;100.00
48404;BME280;34202;52.536;6.042;2023-04-23T01:50:36;100825.70;;;7.52;100.00
48404;BME280;34202;52.536;6.042;2023-04-23T01:55:37;100824.46;;;7.50;100.00
48404;BME280;34202;52.536;6.042;2023-04-23T02:00:37;100816.78;;;7.48;100.00
48404;BME280;34202;52.536;6.042;2023-04-23T02:05:37;100815.86;;;7.45;100.00
48404;BME280;34202;52.536;6.042;2023-04-23T02:10:39;100811.48;;;7.42;100.00
48404;BME280;34202;52.536;6.042;2023-04-23T02:15:39;100811.59;;;7.39;100.00
48404;BME280;34202;52.536;6.042;2023-04-23T02:20:42;100804.95;;;7.35;100.00
48404;BME280;34202;52.536;6.042;2023-04-23T02:25:42;100801.62;;;7.33;100.00
48404;BME280;34202;52.536;6.042;2023-04-23T02:30:43;100796.03;;;7.31;100.00
48404;BME280;34202;52.536;6.042;2023-04-23T02:35:45;100795.51;;;7.31;100.00
48404;BME280;34202;52.536;6.042;2023-04-23T02:40:45;100792.06;;;7.31;100.00
48404;BME280;34202;52.536;6.042;2023-04-23T02:45:46;100786.72;;;7.32;100.00
48404;BME280;34202;52.536;6.042;2023-04-23T02:50:46;100785.33;;;7.33;100.00
48404;BME280;34202;52.536;6.042;2023-04-23T02:55:46;100783.10;;;7.33;100.00
48404;BME280;34202;52.536;6.042;2023-04-23T03:00:46;100785.52;;;7.33;100.00
48404;BME280;34202;52.536;6.042;2023-04-23T03:05:47;100783.63;;;7.34;100.00
48404;BME280;34202;52.536;6.042;2023-04-23T03:10:47;100778.45;;;7.35;100.00
48404;BME280;34202;52.536;6.042;2023-04-23T03:15:50;100772.59;;;7.36;100.00
48404;BME280;34202;52.536;6.042;2023-04-23T03:20:51;100764.98;;;7.37;100.00
48404;BME280;34202;52.536;6.042;2023-04-23T03:25:51;100757.22;;;7.39;100.00
48404;BME280;34202;52.536;6.042;2023-04-23T03:30:51;100761.58;;;7.41;100.00
48404;BME280;34202;52.536;6.042;2023-04-23T03:35:52;100758.52;;;7.43;100.00
48404;BME280;34202;52.536;6.042;2023-04-23T03:40:52;100754.23;;;7.46;100.00
48404;BME280;34202;52.536;6.042;2023-04-23T03:45:52;100749.80;;;7.49;100.00
48404;BME280;34202;52.536;6.042;2023-04-23T03:50:53;100748.29;;;7.52;100.00
48404;BME280;34202;52.536;6.042;2023-04-23T03:55:53;100736.38;;;7.55;100.00
48404;BME280;34202;52.536;6.042;2023-04-23T04:00:53;100728.14;;;7.58;100.00
48404;BME280;34202;52.536;6.042;2023-04-23T04:05:53;100728.35;;;7.61;100.00
48404;BME280;34202;52.536;6.042;2023-04-23T04:10:54;100723.88;;;7.63;100.00
48404;BME280;34202;52.536;6.042;2023-04-23T04:15:55;100725.33;;;7.66;100.00
48404;BME280;34202;52.536;6.042;2023-04-23T04:20:55;100724.83;;;7.68;100.00
48404;BME280;34202;52.536;6.042;2023-04-23T04:25:55;100724.34;;;7.70;100.00
48404;BME280;34202;52.536;6.042;2023-04-23T04:30:56;100724.05;;;7.72;100.00
48404;BME280;34202;52.536;6.042;2023-04-23T04:35:56;100714.19;;;7.73;100.00
48404;BME280;34202;52.536;6.042;2023-04-23T04:40:57;100710.91;;;7.75;100.00
48404;BME280;34202;52.536;6.042;2023-04-23T04:46:01;100719.08;;;7.76;100.00
48404;BME280;34202;52.536;6.042;2023-04-23T04:51:01;100733.84;;;7.79;100.00
48404;BME280;34202;52.536;6.042;2023-04-23T04:56:02;100733.70;;;7.81;100.00
48404;BME280;34202;52.536;6.042;2023-04-23T05:01:02;100730.62;;;7.84;100.00
48404;BME280;34202;52.536;6.042;2023-04-23T05:06:04;100733.98;;;7.86;100.00
48404;BME280;34202;52.536;6.042;2023-04-23T05:11:05;100731.08;;;7.90;100.00
48404;BME280;34202;52.536;6.042;2023-04-23T05:16:05;100722.14;;;7.94;100.00
48404;BME280;34202;52.536;6.042;2023-04-23T05:21:05;100718.70;;;7.97;100.00
48404;BME280;34202;52.536;6.042;2023-04-23T05:26:06;100720.48;;;7.99;100.00
48404;BME280;34202;52.536;6.042;2023-04-23T05:31:06;100726.90;;;8.00;100.00
48404;BME280;34202;52.536;6.042;2023-04-23T05:36:06;100730.20;;;8.01;100.00
48404;BME280;34202;52.536;6.042;2023-04-23T05:41:07;100728.30;;;8.02;100.00
48404;BME280;34202;52.536;6.042;2023-04-23T05:46:07;100726.78;;;8.04;100.00
48404;BME280;34202;52.536;6.042;2023-04-23T05:51:07;100720.58;;;8.06;100.00
48404;BME280;34202;52.536;6.042;2023-04-23T05:56:08;100717.15;;;8.09;100.00
48404;BME280;34202;52.536;6.042;2023-04-23T06:01:08;100719.30;;;8.14;100.00
48404;BME280;34202;52.536;6.042;2023-04-23T06:06:08;100725.80;;;8.19;100.00
48404;BME280;34202;52.536;6.042;2023-04-23T06:11:08;100721.18;;;8.23;100.00
48404;BME280;34202;52.536;6.042;2023-04-23T06:16:09;100719.38;;;8.30;100.00
48404;BME280;34202;52.536;6.042;2023-04-23T06:21:09;100712.95;;;8.40;100.00
48404;BME280;34202;52.536;6.042;2023-04-23T06:26:09;100713.97;;;8.52;100.00
48404;BME280;34202;52.536;6.042;2023-04-23T06:31:10;100714.11;;;8.62;100.00
48404;BME280;34202;52.536;6.042;2023-04-23T06:36:10;100714.71;;;8.69;100.00
48404;BME280;34202;52.536;6.042;2023-04-23T06:41:11;100716.00;;;8.75;100.00
48404;BME280;34202;52.536;6.042;2023-04-23T06:46:12;100712.99;;;8.85;100.00
48404;BME280;34202;52.536;6.042;2023-04-23T06:51:12;100707.23;;;8.98;100.00
48404;BME280;34202;52.536;6.042;2023-04-23T06:56:13;100699.25;;;9.15;100.00
48404;BME280;34202;52.536;6.042;2023-04-23T07:01:13;100699.79;;;9.34;100.00
48404;BME280;34202;52.536;6.042;2023-04-23T07:06:14;100695.12;;;9.55;100.00
48404;BME280;34202;52.536;6.042;2023-04-23T07:11:15;100688.17;;;9.78;100.00
48404;BME280;34202;52.536;6.042;2023-04-23T07:16:15;100678.95;;;10.01;100.00
48404;BME280;34202;52.536;6.042;2023-04-23T07:21:15;100674.05;;;10.24;100.00
48404;BME280;34202;52.536;6.042;2023-04-23T07:26:16;100676.80;;;10.50;100.00
48404;BME280;34202;52.536;6.042;2023-04-23T07:31:16;100669.77;;;10.75;100.00
48404;BME280;34202;52.536;6.042;2023-04-23T07:36:17;100666.35;;;11.02;100.00
48404;BME280;34202;52.536;6.042;2023-04-23T07:41:17;100666.58;;;11.28;100.00
48404;BME280;34202;52.536;6.042;2023-04-23T07:46:17;100662.23;;;11.55;100.00
48404;BME280;34202;52.536;6.042;2023-04-23T07:51:19;100658.73;;;11.82;100.00
48404;BME280;34202;52.536;6.042;2023-04-23T07:56:21;100652.24;;;12.13;100.00
48404;BME280;34202;52.536;6.042;2023-04-23T08:01:23;100658.27;;;12.42;100.00
48404;BME280;34202;52.536;6.042;2023-04-23T08:06:24;100651.15;;;12.71;100.00
48404;BME280;34202;52.536;6.042;2023-04-23T08:11:26;100647.34;;;12.97;100.00
48404;BME280;34202;52.536;6.042;2023-04-23T08:16:28;100645.23;;;13.24;100.00
48404;BME280;34202;52.536;6.042;2023-04-23T08:21:29;100637.35;;;13.52;100.00
48404;BME280;34202;52.536;6.042;2023-04-23T08:26:30;100631.33;;;13.80;100.00
48404;BME280;34202;52.536;6.042;2023-04-23T08:31:30;100634.48;;;14.12;100.00
48404;BME280;34202;52.536;6.042;2023-04-23T08:36:31;100634.17;;;14.39;100.00
48404;BME280;34202;52.536;6.042;2023-04-23T08:41:33;100635.66;;;14.61;100.00
48404;BME280;34202;52.536;6.042;2023-04-23T08:46:35;100642.67;;;14.88;100.00
48404;BME280;34202;52.536;6.042;2023-04-23T08:51:36;100651.55;;;15.16;100.00
48404;BME280;34202;52.536;6.042;2023-04-23T08:56:37;100646.23;;;15.42;100.00
48404;BME280;34202;52.536;6.042;2023-04-23T09:01:39;100640.63;;;15.73;100.00
48404;BME280;34202;52.536;6.042;2023-04-23T09:06:40;100632.02;;;16.03;100.00
48404;BME280;34202;52.536;6.042;2023-04-23T09:11:40;100628.59;;;16.26;100.00
48404;BME280;34202;52.536;6.042;2023-04-23T09:16:41;100624.70;;;16.44;100.00
48404;BME280;34202;52.536;6.042;2023-04-23T09:21:41;100621.05;;;16.60;100.00
48404;BME280;34202;52.536;6.042;2023-04-23T09:26:44;100617.10;;;16.79;99.03
48404;BME280;34202;52.536;6.042;2023-04-23T09:31:46;100620.09;;;16.96;98.14
48404;BME280;34202;52.536;6.042;2023-04-23T09:36:47;100615.23;;;17.08;96.56
48404;BME280;34202;52.536;6.042;2023-04-23T09:41:52;100616.95;;;17.17;94.76
48404;BME280;34202;52.536;6.042;2023-04-23T09:46:52;100612.18;;;17.18;92.50
48404;BME280;34202;52.536;6.042;2023-04-23T09:51:53;100607.43;;;17.26;92.11
48404;BME280;34202;52.536;6.042;2023-04-23T09:56:53;100603.11;;;17.44;91.83
48404;BME280;34202;52.536;6.042;2023-04-23T10:02:01;100597.98;;;17.59;90.93
48404;BME280;34202;52.536;6.042;2023-04-23T10:07:02;100597.18;;;17.62;88.84
48404;BME280;34202;52.536;6.042;2023-04-23T10:12:03;100592.77;;;17.63;88.23
48404;BME280;34202;52.536;6.042;2023-04-23T10:17:05;100591.01;;;17.69;87.72
48404;BME280;34202;52.536;6.042;2023-04-23T10:22:07;100588.70;;;17.77;86.26
48404;BME280;34202;52.536;6.042;2023-04-23T10:27:10;100592.20;;;17.85;85.69
48404;BME280;34202;52.536;6.042;2023-04-23T10:32:10;100597.45;;;17.92;84.45
48404;BME280;34202;52.536;6.042;2023-04-23T10:37:11;100592.34;;;17.93;83.24
48404;BME280;34202;52.536;6.042;2023-04-23T10:42:14;100587.88;;;18.01;82.58
48404;BME280;34202;52.536;6.042;2023-04-23T10:47:15;100581.38;;;18.13;81.69
48404;BME280;34202;52.536;6.042;2023-04-23T10:52:16;100576.49;;;18.30;82.27
48404;BME280;34202;52.536;6.042;2023-04-23T10:57:17;100566.62;;;18.54;80.07
48404;BME280;34202;52.536;6.042;2023-04-23T11:02:18;100569.27;;;18.71;79.16
48404;BME280;34202;52.536;6.042;2023-04-23T11:07:19;100562.49;;;18.91;77.11
48404;BME280;34202;52.536;6.042;2023-04-23T11:18:09;100548.27;;;19.21;75.33
48404;BME280;34202;52.536;6.042;2023-04-23T11:22:47;100541.92;;;19.31;73.82
48404;BME280;34202;52.536;6.042;2023-04-23T11:27:49;100538.36;;;19.42;73.00
48404;BME280;34202;52.536;6.042;2023-04-23T11:32:50;100530.25;;;19.53;72.27
48404;BME280;34202;52.536;6.042;2023-04-23T11:37:51;100527.20;;;19.59;70.80
48404;BME280;34202;52.536;6.042;2023-04-23T11:42:52;100526.80;;;19.60;70.36
48404;BME280;34202;52.536;6.042;2023-04-23T11:47:54;100520.63;;;19.65;69.87
48404;BME280;34202;52.536;6.042;2023-04-23T11:52:55;100522.30;;;19.67;68.37
48404;BME280;34202;52.536;6.042;2023-04-23T11:57:56;100515.27;;;19.66;67.80
48404;BME280;34202;52.536;6.042;2023-04-23T12:02:57;100508.42;;;19.71;67.61
48404;BME280;34202;52.536;6.042;2023-04-23T12:13:15;100484.39;;;19.86;66.98
48404;BME280;34202;52.536;6.042;2023-04-23T12:18:16;100485.37;;;19.93;66.04
48404;BME280;34202;52.536;6.042;2023-04-23T12:23:17;100479.20;;;20.07;66.05
48404;BME280;34202;52.536;6.042;2023-04-23T12:28:21;100474.56;;;20.13;64.96
48404;BME280;34202;52.536;6.042;2023-04-23T12:33:21;100467.63;;;20.22;65.13
48404;BME280;34202;52.536;6.042;2023-04-23T12:38:22;100456.96;;;20.34;64.43
48404;BME280;34202;52.536;6.042;2023-04-23T12:43:24;100446.90;;;20.46;64.38
48404;BME280;34202;52.536;6.042;2023-04-23T12:48:24;100438.20;;;20.56;63.05
48404;BME280;34202;52.536;6.042;2023-04-23T12:53:25;100428.66;;;20.60;61.97
48404;BME280;34202;52.536;6.042;2023-04-23T12:58:25;100416.41;;;20.62;61.03
48404;BME280;34202;52.536;6.042;2023-04-23T13:03:26;100415.57;;;20.61;60.46
48404;BME280;34202;52.536;6.042;2023-04-23T13:08:27;100414.08;;;20.58;60.05
48404;BME280;34202;52.536;6.042;2023-04-23T13:13:27;100407.16;;;20.54;59.75
48404;BME280;34202;52.536;6.042;2023-04-23T13:18:27;100398.42;;;20.47;59.07
48404;BME280;34202;52.536;6.042;2023-04-23T13:23:27;100394.96;;;20.46;59.19
48404;BME280;34202;52.536;6.042;2023-04-23T13:28:28;100385.98;;;20.53;60.10
48404;BME280;34202;52.536;6.042;2023-04-23T13:33:28;100381.39;;;20.66;60.25
48404;BME280;34202;52.536;6.042;2023-04-23T13:38:29;100370.82;;;20.82;59.91
48404;BME280;34202;52.536;6.042;2023-04-23T13:43:29;100358.23;;;20.87;59.28
48404;BME280;34202;52.536;6.042;2023-04-23T13:48:29;100356.03;;;20.81;58.72
48404;BME280;34202;52.536;6.042;2023-04-23T13:53:30;100354.52;;;20.75;58.00
48404;BME280;34202;52.536;6.042;2023-04-23T13:58:30;100346.13;;;20.69;57.81
48404;BME280;34202;52.536;6.042;2023-04-23T14:03:30;100337.98;;;20.65;57.95
48404;BME280;34202;52.536;6.042;2023-04-23T14:08:31;100327.20;;;20.56;57.28
48404;BME280;34202;52.536;6.042;2023-04-23T14:13:31;100320.38;;;20.41;57.39
48404;BME280;34202;52.536;6.042;2023-04-23T14:18:32;100314.55;;;20.25;57.52
48404;BME280;34202;52.536;6.042;2023-04-23T14:28:44;100309.70;;;20.09;58.68
48404;BME280;34202;52.536;6.042;2023-04-23T14:33:45;100301.04;;;20.01;58.48
48404;BME280;34202;52.536;6.042;2023-04-23T14:38:46;100294.19;;;19.91;58.68
48404;BME280;34202;52.536;6.042;2023-04-23T14:43:46;100285.11;;;19.88;59.20
48404;BME280;34202;52.536;6.042;2023-04-23T14:48:46;100281.43;;;19.92;59.76
48404;BME280;34202;52.536;6.042;2023-04-23T14:53:46;100273.08;;;19.94;59.70
48404;BME280;34202;52.536;6.042;2023-04-23T14:58:47;100268.72;;;19.93;59.97
48404;BME280;34202;52.536;6.042;2023-04-23T15:03:47;100262.56;;;19.87;59.50
48404;BME280;34202;52.536;6.042;2023-04-23T15:08:47;100253.68;;;19.76;59.54
48404;BME280;34202;52.536;6.042;2023-04-23T15:14:07;100250.34;;;19.62;59.72
48404;BME280;34202;52.536;6.042;2023-04-23T15:19:07;100263.52;;;19.45;60.20
48404;BME280;34202;52.536;6.042;2023-04-23T15:24:09;100263.05;;;19.21;61.75
48404;BME280;34202;52.536;6.042;2023-04-23T15:29:09;100254.81;;;18.96;62.46
48404;BME280;34202;52.536;6.042;2023-04-23T15:34:10;100249.61;;;18.73;63.31
48404;BME280;34202;52.536;6.042;2023-04-23T15:39:11;100251.73;;;18.53;64.04
48404;BME280;34202;52.536;6.042;2023-04-23T15:44:11;100251.59;;;18.32;65.03
48404;BME280;34202;52.536;6.042;2023-04-23T15:49:11;100237.98;;;18.13;66.34
48404;BME280;34202;52.536;6.042;2023-04-23T15:54:11;100235.59;;;18.00;67.70
48404;BME280;34202;52.536;6.042;2023-04-23T15:59:12;100238.02;;;17.90;68.80
48404;BME280;34202;52.536;6.042;2023-04-23T16:04:12;100238.55;;;17.85;69.72
48404;BME280;34202;52.536;6.042;2023-04-23T16:09:13;100237.14;;;17.74;69.90
48404;BME280;34202;52.536;6.042;2023-04-23T16:14:13;100247.48;;;17.58;69.38
48404;BME280;34202;52.536;6.042;2023-04-23T16:19:13;100251.13;;;17.37;68.91
48404;BME280;34202;52.536;6.042;2023-04-23T16:24:14;100268.84;;;17.16;69.59
48404;BME280;34202;52.536;6.042;2023-04-23T16:29:16;100285.95;;;16.82;70.01
48404;BME280;34202;52.536;6.042;2023-04-23T16:34:16;100290.46;;;16.38;71.07
48404;BME280;34202;52.536;6.042;2023-04-23T16:39:16;100289.11;;;16.01;72.38
48404;BME280;34202;52.536;6.042;2023-04-23T16:44:16;100284.63;;;15.67;73.30
48404;BME280;34202;52.536;6.042;2023-04-23T16:49:18;100284.75;;;15.38;74.21
48404;BME280;34202;52.536;6.042;2023-04-23T16:54:18;100289.32;;;15.13;75.12
48404;BME280;34202;52.536;6.042;2023-04-23T16:59:18;100289.71;;;14.93;76.21
48404;BME280;34202;52.536;6.042;2023-04-23T17:04:19;100292.88;;;14.74;77.31
48404;BME280;34202;52.536;6.042;2023-04-23T17:09:19;100290.72;;;14.58;78.48
48404;BME280;34202;52.536;6.042;2023-04-23T17:14:19;100284.42;;;14.47;79.63
48404;BME280;34202;52.536;6.042;2023-04-23T17:19:20;100272.20;;;14.35;80.56
48404;BME280;34202;52.536;6.042;2023-04-23T17:24:20;100272.91;;;14.25;81.63
48404;BME280;34202;52.536;6.042;2023-04-23T17:29:20;100262.73;;;14.16;82.22
48404;BME280;34202;52.536;6.042;2023-04-23T17:34:20;100248.38;;;14.06;82.82
48404;BME280;34202;52.536;6.042;2023-04-23T17:39:20;100233.64;;;13.98;83.44
48404;BME280;34202;52.536;6.042;2023-04-23T17:44:22;100222.14;;;13.95;84.11
48404;BME280;34202;52.536;6.042;2023-04-23T17:49:22;100211.56;;;13.90;84.32
48404;BME280;34202;52.536;6.042;2023-04-23T17:54:23;100190.60;;;13.88;84.53
48404;BME280;34202;52.536;6.042;2023-04-23T17:59:24;100179.59;;;13.88;84.83
48404;BME280;34202;52.536;6.042;2023-04-23T18:04:24;100169.27;;;13.88;85.24
48404;BME280;34202;52.536;6.042;2023-04-23T18:09:24;100160.16;;;13.88;85.21
48404;BME280;34202;52.536;6.042;2023-04-23T18:14:24;100153.02;;;13.87;85.17
48404;BME280;34202;52.536;6.042;2023-04-23T18:19:25;100136.20;;;13.80;85.09
48404;BME280;34202;52.536;6.042;2023-04-23T18:24:25;100129.20;;;13.69;85.15
48404;BME280;34202;52.536;6.042;2023-04-23T18:29:26;100118.01;;;13.59;85.60
48404;BME280;34202;52.536;6.042;2023-04-23T18:34:29;100113.83;;;13.36;85.62
48404;BME280;34202;52.536;6.042;2023-04-23T18:39:29;100110.35;;;13.13;86.37
48404;BME280;34202;52.536;6.042;2023-04-23T18:44:30;100104.71;;;12.92;87.56
48404;BME280;34202;52.536;6.042;2023-04-23T18:49:38;100104.14;;;12.70;88.54
48404;BME280;34202;52.536;6.042;2023-04-23T18:54:43;100105.08;;;12.53;89.84
48404;BME280;34202;52.536;6.042;2023-04-23T18:59:43;100098.90;;;12.44;90.66
48404;BME280;34202;52.536;6.042;2023-04-23T19:04:43;100092.96;;;12.31;91.50
48404;BME280;34202;52.536;6.042;2023-04-23T19:09:43;100090.67;;;12.18;92.56
48404;BME280;34202;52.536;6.042;2023-04-23T19:14:44;100089.23;;;12.08;93.27
48404;BME280;34202;52.536;6.042;2023-04-23T19:19:44;100085.78;;;12.04;93.93
48404;BME280;34202;52.536;6.042;2023-04-23T19:24:45;100084.05;;;12.02;94.42
48404;BME280;34202;52.536;6.042;2023-04-23T19:29:45;100077.98;;;11.99;94.71
48404;BME280;34202;52.536;6.042;2023-04-23T19:34:47;100075.71;;;12.00;95.03
48404;BME280;34202;52.536;6.042;2023-04-23T19:39:47;100073.26;;;12.01;95.26
48404;BME280;34202;52.536;6.042;2023-04-23T19:44:47;100069.27;;;12.00;95.32
48404;BME280;34202;52.536;6.042;2023-04-23T19:49:48;100061.79;;;11.97;95.60
48404;BME280;34202;52.536;6.042;2023-04-23T19:54:49;100055.88;;;11.96;95.77
48404;BME280;34202;52.536;6.042;2023-04-23T19:59:49;100048.41;;;11.93;95.98
48404;BME280;34202;52.536;6.042;2023-04-23T20:04:49;100040.77;;;11.91;96.16
48404;BME280;34202;52.536;6.042;2023-04-23T20:09:50;100031.53;;;11.87;96.31
48404;BME280;34202;52.536;6.042;2023-04-23T20:14:50;100022.61;;;11.75;96.65
48404;BME280;34202;52.536;6.042;2023-04-23T20:19:51;100009.14;;;11.63;97.35
48404;BME280;34202;52.536;6.042;2023-04-23T20:24:52;100009.55;;;11.57;97.78
48404;BME280;34202;52.536;6.042;2023-04-23T20:29:53;100001.40;;;11.55;98.14
48404;BME280;34202;52.536;6.042;2023-04-23T20:34:53;99989.05;;;11.52;98.33
48404;BME280;34202;52.536;6.042;2023-04-23T20:39:54;99993.21;;;11.53;98.71
48404;BME280;34202;52.536;6.042;2023-04-23T20:44:54;99980.64;;;11.56;99.00
48404;BME280;34202;52.536;6.042;2023-04-23T20:49:54;99969.49;;;11.55;99.16
48404;BME280;34202;52.536;6.042;2023-04-23T20:54:55;99955.24;;;11.51;99.44
48404;BME280;34202;52.536;6.042;2023-04-23T20:59:55;99946.40;;;11.48;99.89
48404;BME280;34202;52.536;6.042;2023-04-23T21:04:55;99938.95;;;11.45;100.00
48404;BME280;34202;52.536;6.042;2023-04-23T21:09:55;99929.23;;;11.40;100.00
48404;BME280;34202;52.536;6.042;2023-04-23T21:14:56;99920.90;;;11.38;100.00
48404;BME280;34202;52.536;6.042;2023-04-23T21:19:56;99905.93;;;11.37;100.00
48404;BME280;34202;52.536;6.042;2023-04-23T21:24:56;99898.77;;;11.38;100.00
48404;BME280;34202;52.536;6.042;2023-04-23T21:29:59;99883.98;;;11.37;100.00
48404;BME280;34202;52.536;6.042;2023-04-23T21:35:00;99873.21;;;11.35;100.00
48404;BME280;34202;52.536;6.042;2023-04-23T21:40:01;99870.63;;;11.32;100.00
48404;BME280;34202;52.536;6.042;2023-04-23T21:45:01;99861.93;;;11.30;100.00
48404;BME280;34202;52.536;6.042;2023-04-23T21:50:01;99854.42;;;11.32;100.00
48404;BME280;34202;52.536;6.042;2023-04-23T21:55:05;99849.16;;;11.35;100.00
48404;BME280;34202;52.536;6.042;2023-04-23T22:00:06;99848.80;;;11.37;100.00
48404;BME280;34202;52.536;6.042;2023-04-23T22:05:09;99843.17;;;11.40;100.00
48404;BME280;34202;52.536;6.042;2023-04-23T22:10:10;99838.28;;;11.42;100.00
48404;BME280;34202;52.536;6.042;2023-04-23T22:15:12;99830.26;;;11.43;100.00
48404;BME280;34202;52.536;6.042;2023-04-23T22:20:13;99832.51;;;11.44;100.00
48404;BME280;34202;52.536;6.042;2023-04-23T22:25:13;99830.28;;;11.40;100.00
48404;BME280;34202;52.536;6.042;2023-04-23T22:30:15;99827.92;;;11.34;100.00
48404;BME280;34202;52.536;6.042;2023-04-23T22:35:15;99820.89;;;11.26;100.00
48404;BME280;34202;52.536;6.042;2023-04-23T22:40:15;99818.00;;;11.19;100.00
48404;BME280;34202;52.536;6.042;2023-04-23T22:45:16;99814.59;;;11.14;100.00
48404;BME280;34202;52.536;6.042;2023-04-23T22:50:16;99807.51;;;11.09;100.00
48404;BME280;34202;52.536;6.042;2023-04-23T22:55:16;99809.98;;;11.06;100.00
48404;BME280;34202;52.536;6.042;2023-04-23T23:00:16;99809.84;;;11.03;100.00
48404;BME280;34202;52.536;6.042;2023-04-23T23:05:17;99811.45;;;10.99;100.00
48404;BME280;34202;52.536;6.042;2023-04-23T23:10:17;99808.38;;;10.94;100.00
48404;BME280;34202;52.536;6.042;2023-04-23T23:15:18;99808.77;;;10.91;100.00
48404;BME280;34202;52.536;6.042;2023-04-23T23:20:19;99808.45;;;10.86;100.00
48404;BME280;34202;52.536;6.042;2023-04-23T23:25:19;99807.80;;;10.82;100.00
48404;BME280;34202;52.536;6.042;2023-04-23T23:30:19;99811.84;;;10.78;100.00
48404;BME280;34202;52.536;6.042;2023-04-23T23:35:20;99809.80;;;10.75;100.00
48404;BME280;34202;52.536;6.042;2023-04-23T23:40:20;99812.63;;;10.71;100.00
48404;BME280;34202;52.536;6.042;2023-04-23T23:45:20;99810.73;;;10.69;100.00
48404;BME280;34202;52.536;6.042;2023-04-23T23:50:20;99814.77;;;10.66;100.00
48404;BME280;34202;52.536;6.042;2023-04-23T23:55:21;99811.83;;;10.63;100.00
